Time;durP1;ratioP1;P1;durP2;ratioP2;P2;SDS_P1;SDS_P2;PMS_P1;PMS_P2;Temp;Humidity;BMP_temperature;BMP_pressure;BME280_temperature;BME280_humidity;BME280_pressure;Samples;Min_cycle;Max_cycle;Signal;HPM_P1;HPM_P2
2022/12/27 00:00:14;;;;;;;;;;;;;;;12.31;70.30;101688.16;1052995;28;673;-71
2022/12/27 00:01:04;;;;;;;;;;;;;;;12.32;70.03;101687.22;1055248;28;1415;-71
2022/12/27 00:01:55;;;;;;;;;;;;;;;12.31;69.70;101689.03;1056166;28;1205;-71
2022/12/27 00:02:45;;;;;;;;;;;;;;;12.29;70.53;101685.56;1053215;28;617;-71
2022/12/27 00:03:36;;;;;;;;;;;;;;;12.30;70.37;101686.44;1053750;28;1143;-71
2022/12/27 00:04:26;;;;;;;;;;;;;;;12.31;70.01;101688.16;1055975;28;689;-71
2022/12/27 00:05:17;;;;;;;;;;;;;;;12.31;69.99;101690.81;1054897;28;737;-71
2022/12/27 00:06:07;;;;;;;;;;;;;;;12.28;69.61;101688.34;1053008;28;685;-71
2022/12/27 00:06:57;;;;;;;;;;;;;;;12.28;70.61;101693.69;1054850;28;1052;-72
2022/12/27 00:07:48;;;;;;;;;;;;;;;12.25;70.22;101694.72;1056102;28;1171;-71
2022/12/27 00:08:38;;;;;;;;;;;;;;;12.28;70.32;101688.34;1055353;28;705;-71
2022/12/27 00:09:29;;;;;;;;;;;;;;;12.28;70.04;101688.34;1055952;28;1205;-71
2022/12/27 00:10:19;;;;;;;;;;;;;;;12.28;70.16;101683.84;1057200;28;705;-71
2022/12/27 00:11:10;;;;;;;;;;;;;;;12.31;70.37;101690.81;1055040;28;1581;-70
2022/12/27 00:12:00;;;;;;;;;;;;;;;12.28;70.16;101689.19;1052570;28;1317;-70
2022/12/27 00:12:52;;;;;;;;;;;;;;;12.27;70.58;101681.25;1056385;27;1220;-71
2022/12/27 00:13:42;;;;;;;;;;;;;;;12.29;69.60;101690.06;1057399;28;1096;-71
2022/12/27 00:14:32;;;;;;;;;;;;;;;12.28;70.50;101683.00;1056028;28;1190;-71
2022/12/27 00:15:23;;;;;;;;;;;;;;;12.30;70.63;101683.75;1053108;28;654;-71
2022/12/27 00:16:13;;;;;;;;;;;;;;;12.32;69.58;101689.88;1055473;28;1150;-71
2022/12/27 00:17:04;;;;;;;;;;;;;;;12.31;70.38;101686.34;1053587;28;715;-71
2022/12/27 00:17:54;;;;;;;;;;;;;;;12.30;69.70;101686.44;1055573;28;1175;-71
2022/12/27 00:18:45;;;;;;;;;;;;;;;12.29;70.08;101680.22;1053063;28;692;-72
2022/12/27 00:19:35;;;;;;;;;;;;;;;12.29;69.49;101679.38;1053884;28;732;-71
2022/12/27 00:20:26;;;;;;;;;;;;;;;12.28;70.04;101678.50;1056001;28;1174;-71
2022/12/27 00:21:16;;;;;;;;;;;;;;;12.30;70.16;101681.94;1056486;28;1436;-71
2022/12/27 00:22:07;;;;;;;;;;;;;;;12.28;70.42;101680.31;1053484;28;1036;-72
2022/12/27 00:22:57;;;;;;;;;;;;;;;12.28;69.74;101677.63;1055224;28;700;-72
2022/12/27 00:23:47;;;;;;;;;;;;;;;12.28;70.55;101677.63;1056094;28;704;-72
2022/12/27 00:24:39;;;;;;;;;;;;;;;12.27;69.91;101675.91;1060215;27;704;-72
2022/12/27 00:25:29;;;;;;;;;;;;;;;12.24;70.54;101673.41;1060690;27;676;-71
2022/12/27 00:26:19;;;;;;;;;;;;;;;12.27;70.38;101676.78;1056004;28;646;-71
2022/12/27 00:27:10;;;;;;;;;;;;;;;12.27;70.14;101675.91;1055960;28;1216;-72
2022/12/27 00:28:00;;;;;;;;;;;;;;;12.28;69.71;101683.00;1055291;28;746;-72
2022/12/27 00:28:53;;;;;;;;;;;;;;;12.28;70.07;101688.34;1055979;28;1170;-72
2022/12/27 00:29:44;;;;;;;;;;;;;;;12.27;69.75;101683.94;1053197;28;681;-71
2022/12/27 00:30:34;;;;;;;;;;;;;;;12.25;70.35;101683.16;1053034;28;1143;-71
2022/12/27 00:31:25;;;;;;;;;;;;;;;12.27;69.80;101684.78;1052467;28;661;-71
2022/12/27 00:32:15;;;;;;;;;;;;;;;12.26;70.14;101683.06;1053535;28;673;-71
2022/12/27 00:33:06;;;;;;;;;;;;;;;12.24;70.08;101684.09;1052366;28;641;-71
2022/12/27 00:33:56;;;;;;;;;;;;;;;12.26;69.67;101677.72;1053548;28;1166;-71
2022/12/27 00:34:46;;;;;;;;;;;;;;;12.29;70.48;101684.72;1049023;28;681;-72
2022/12/27 00:35:37;;;;;;;;;;;;;;;12.28;69.57;101683.84;1048464;28;1036;-72
2022/12/27 00:36:27;;;;;;;;;;;;;;;12.26;69.68;101685.75;1051449;28;650;-72
2022/12/27 00:37:18;;;;;;;;;;;;;;;12.25;70.60;101688.50;1056086;28;749;-72
2022/12/27 00:38:08;;;;;;;;;;;;;;;12.25;70.56;101689.38;1051641;28;666;-71
2022/12/27 00:38:59;;;;;;;;;;;;;;;12.25;69.62;101688.50;1054821;28;1130;-72
2022/12/27 00:39:49;;;;;;;;;;;;;;;12.24;70.29;101694.81;1060223;28;681;-72
2022/12/27 00:40:39;;;;;;;;;;;;;;;12.23;70.55;101695.75;1059400;27;717;-71
2022/12/27 00:41:30;;;;;;;;;;;;;;;12.23;70.44;101693.94;1053146;28;716;-72
2022/12/27 00:42:21;;;;;;;;;;;;;;;12.23;69.82;101695.75;1059220;27;1147;-71
2022/12/27 00:43:11;;;;;;;;;;;;;;;12.22;69.75;101700.22;1056650;28;1698;-71
2022/12/27 00:44:01;;;;;;;;;;;;;;;12.24;70.49;101694.81;1055219;28;1008;-71
2022/12/27 00:44:52;;;;;;;;;;;;;;;12.25;70.64;101694.72;1057216;28;665;-71
2022/12/27 00:45:42;;;;;;;;;;;;;;;12.24;70.04;101692.13;1054038;28;1137;-71
2022/12/27 00:46:33;;;;;;;;;;;;;;;12.22;70.56;101694.03;1055091;28;705;-71
2022/12/27 00:47:23;;;;;;;;;;;;;;;12.21;70.04;101692.31;1051161;28;1091;-71
2022/12/27 00:48:14;;;;;;;;;;;;;;;12.21;70.57;101697.66;1051410;28;677;-71
2022/12/27 00:49:04;;;;;;;;;;;;;;;12.18;70.51;101696.88;1053462;28;1106;-70
2022/12/27 00:49:54;;;;;;;;;;;;;;;12.18;70.72;101698.72;1055414;28;547;-70
2022/12/27 00:50:45;;;;;;;;;;;;;;;12.18;69.89;101693.38;1052331;28;1084;-71
2022/12/27 00:51:35;;;;;;;;;;;;;;;12.18;70.04;101683.50;1048601;28;1096;-71
2022/12/27 00:52:26;;;;;;;;;;;;;;;12.22;69.94;101692.22;1053453;28;626;-71
2022/12/27 00:53:16;;;;;;;;;;;;;;;12.21;70.38;101694.97;1052110;28;972;-71
2022/12/27 00:54:06;;;;;;;;;;;;;;;12.23;69.61;101691.25;1057119;28;633;-71
2022/12/27 00:54:57;;;;;;;;;;;;;;;12.24;69.73;101692.13;1057233;28;757;-71
2022/12/27 00:55:47;;;;;;;;;;;;;;;12.20;69.95;101698.59;1051693;28;641;-71
2022/12/27 00:56:38;;;;;;;;;;;;;;;12.22;69.96;101702.03;1054514;28;917;-71
2022/12/27 00:57:28;;;;;;;;;;;;;;;12.22;70.07;101700.22;1053995;28;1901;-71
2022/12/27 00:58:19;;;;;;;;;;;;;;;12.22;70.62;101705.56;1057045;28;1062;-71
2022/12/27 00:59:09;;;;;;;;;;;;;;;12.20;69.77;101699.44;1061677;27;675;-71
2022/12/27 00:59:59;;;;;;;;;;;;;;;12.18;69.92;101712.91;1056876;28;636;-71
2022/12/27 01:00:50;;;;;;;;;;;;;;;12.18;70.71;101713.88;1053373;28;668;-71
2022/12/27 01:01:40;;;;;;;;;;;;;;;12.18;69.76;101710.22;1058109;28;643;-71
2022/12/27 01:02:31;;;;;;;;;;;;;;;12.17;70.53;101718.38;1053164;28;639;-71
2022/12/27 01:03:21;;;;;;;;;;;;;;;12.18;69.92;101716.56;1054388;28;625;-71
2022/12/27 01:04:12;;;;;;;;;;;;;;;12.18;70.60;101718.25;1055362;28;1202;-72
2022/12/27 01:05:03;;;;;;;;;;;;;;;12.21;70.15;101719.03;1053804;28;643;-72
2022/12/27 01:05:53;;;;;;;;;;;;;;;12.18;70.28;101723.59;1057026;28;1166;-72
2022/12/27 01:06:44;;;;;;;;;;;;;;;12.18;69.94;101720.91;1055073;28;1094;-72
2022/12/27 01:07:34;;;;;;;;;;;;;;;12.21;69.86;101732.38;1056561;28;728;-72
2022/12/27 01:08:24;;;;;;;;;;;;;;;12.23;70.01;101727.81;1053835;28;1130;-72
2022/12/27 01:09:15;;;;;;;;;;;;;;;12.22;70.74;101728.75;1056433;28;686;-72
2022/12/27 01:10:05;;;;;;;;;;;;;;;12.21;70.11;101724.38;1056643;28;638;-72
2022/12/27 01:10:56;;;;;;;;;;;;;;;12.18;70.19;101731.59;1053836;28;1413;-72
2022/12/27 01:11:46;;;;;;;;;;;;;;;12.20;69.78;101733.31;1053630;28;790;-72
2022/12/27 01:12:37;;;;;;;;;;;;;;;12.21;69.64;101729.72;1054654;28;642;-72
2022/12/27 01:13:27;;;;;;;;;;;;;;;12.20;70.22;101734.19;1056809;28;1153;-72
2022/12/27 01:14:17;;;;;;;;;;;;;;;12.18;70.63;101736.94;1056213;28;634;-72
2022/12/27 01:15:08;;;;;;;;;;;;;;;12.18;69.86;101737.94;1052997;28;1151;-72
2022/12/27 01:15:58;;;;;;;;;;;;;;;12.18;70.75;101735.25;1053412;28;714;-72
2022/12/27 01:16:49;;;;;;;;;;;;;;;12.20;69.77;101739.53;1048776;28;666;-72
2022/12/27 01:17:39;;;;;;;;;;;;;;;12.18;69.92;101736.94;1057042;28;2011;-72
2022/12/27 01:18:30;;;;;;;;;;;;;;;12.18;70.41;101736.94;1056583;28;1175;-73
2022/12/27 01:19:20;;;;;;;;;;;;;;;12.18;69.73;101729.91;1056413;28;885;-72
2022/12/27 01:20:10;;;;;;;;;;;;;;;12.15;69.75;101728.28;1056554;28;1217;-72
2022/12/27 01:21:01;;;;;;;;;;;;;;;12.16;70.20;101735.34;1054141;28;1504;-71
2022/12/27 01:21:51;;;;;;;;;;;;;;;12.14;70.10;101738.09;1056395;28;1220;-71
2022/12/27 01:22:42;;;;;;;;;;;;;;;12.16;69.78;101730.88;1053760;28;603;-71
2022/12/27 01:23:32;;;;;;;;;;;;;;;12.14;69.91;101745.25;1059902;27;1213;-71
2022/12/27 01:24:23;;;;;;;;;;;;;;;12.14;70.18;101740.78;1057123;28;649;-71
2022/12/27 01:25:13;;;;;;;;;;;;;;;12.14;70.69;101734.56;1055512;28;1158;-70
2022/12/27 01:26:03;;;;;;;;;;;;;;;12.15;70.07;101739.81;1053655;28;717;-70
2022/12/27 01:26:54;;;;;;;;;;;;;;;12.15;69.85;101745.16;1056507;28;1211;-71
2022/12/27 01:27:44;;;;;;;;;;;;;;;12.18;69.84;101742.28;1056610;28;645;-71
2022/12/27 01:28:35;;;;;;;;;;;;;;;12.18;69.66;101737.94;1056701;28;1194;-70
2022/12/27 01:29:25;;;;;;;;;;;;;;;12.18;70.61;101742.28;1056695;28;794;-71
2022/12/27 01:30:16;;;;;;;;;;;;;;;12.21;70.38;101745.75;1056525;28;1162;-70
2022/12/27 01:31:06;;;;;;;;;;;;;;;12.21;70.41;101751.09;1055600;28;1677;-71
2022/12/27 01:31:56;;;;;;;;;;;;;;;12.20;70.40;101752.91;1053300;28;1030;-71
2022/12/27 01:32:47;;;;;;;;;;;;;;;12.18;70.17;101745.94;1056224;28;690;-71
2022/12/27 01:33:38;;;;;;;;;;;;;;;12.19;69.87;101743.16;1057713;28;1217;-71
2022/12/27 01:34:28;;;;;;;;;;;;;;;12.18;69.89;101746.81;1056248;28;1193;-71
2022/12/27 01:35:18;;;;;;;;;;;;;;;12.20;70.06;101747.56;1056111;28;757;-71
2022/12/27 01:36:09;;;;;;;;;;;;;;;12.18;70.41;101744.97;1056640;28;658;-71
2022/12/27 01:36:59;;;;;;;;;;;;;;;12.18;70.69;101745.94;1052856;28;673;-71
2022/12/27 01:37:50;;;;;;;;;;;;;;;12.18;70.57;101747.63;1054526;28;1970;-71
2022/12/27 01:38:43;;;;;;;;;;;;;;;12.18;70.54;101744.97;1053810;28;674;-71
2022/12/27 01:39:34;;;;;;;;;;;;;;;12.18;70.50;101734.28;1053102;28;637;-71
2022/12/27 01:40:24;;;;;;;;;;;;;;;12.19;70.70;101748.50;1049751;28;645;-71
2022/12/27 01:43:33;;;;;;;;;;;;;;;12.20;70.27;101749.38;1055562;28;968;-71
2022/12/27 01:44:23;;;;;;;;;;;;;;;12.20;70.53;101755.56;1053568;28;692;-71
2022/12/27 01:45:13;;;;;;;;;;;;;;;12.19;69.67;101761.84;1050596;28;1146;-71
2022/12/27 01:46:04;;;;;;;;;;;;;;;12.18;70.30;101759.31;1056756;28;689;-71
2022/12/27 01:46:54;;;;;;;;;;;;;;;12.21;69.93;101759.09;1053617;28;676;-72
2022/12/27 01:47:45;;;;;;;;;;;;;;;12.18;69.95;101761.00;1053553;28;840;-72
2022/12/27 01:48:35;;;;;;;;;;;;;;;12.21;69.81;101761.78;1056520;28;708;-72
2022/12/27 01:49:26;;;;;;;;;;;;;;;12.18;70.32;101758.31;1056397;28;1157;-72
2022/12/27 01:50:16;;;;;;;;;;;;;;;12.20;69.65;101765.41;1056768;28;731;-72
2022/12/27 01:51:07;;;;;;;;;;;;;;;12.18;70.68;101767.31;1052614;28;1409;-71
2022/12/27 01:51:57;;;;;;;;;;;;;;;12.17;69.74;101774.47;1056492;28;1190;-72
2022/12/27 01:52:47;;;;;;;;;;;;;;;12.20;69.78;101776.09;1055892;28;737;-72
2022/12/27 01:53:38;;;;;;;;;;;;;;;12.20;69.67;101776.09;1056561;28;1174;-72
2022/12/27 01:54:28;;;;;;;;;;;;;;;12.18;70.51;101782.38;1053914;28;631;-72
2022/12/27 01:55:19;;;;;;;;;;;;;;;12.16;69.90;101786.97;1052556;28;1166;-71
2022/12/27 01:56:09;;;;;;;;;;;;;;;12.20;70.07;101781.44;1056754;28;725;-71
2022/12/27 01:56:59;;;;;;;;;;;;;;;12.18;70.13;101784.22;1052814;28;692;-71
2022/12/27 01:57:50;;;;;;;;;;;;;;;12.21;70.53;101777.81;1053985;28;1890;-71
2022/12/27 01:58:40;;;;;;;;;;;;;;;12.20;70.16;101781.44;1057276;28;676;-71
2022/12/27 01:59:31;;;;;;;;;;;;;;;12.21;69.95;101783.16;1055973;28;1075;-71
2022/12/27 02:00:21;;;;;;;;;;;;;;;12.18;70.05;101774.34;1057191;28;614;-71
2022/12/27 02:01:12;;;;;;;;;;;;;;;12.18;69.65;101785.06;1055827;28;1420;-71
2022/12/27 02:02:02;;;;;;;;;;;;;;;12.19;70.49;101785.91;1057657;28;1126;-71
2022/12/27 02:02:52;;;;;;;;;;;;;;;12.19;70.41;101783.25;1053517;28;681;-71
2022/12/27 02:03:43;;;;;;;;;;;;;;;12.16;69.94;101780.78;1052539;28;796;-71
2022/12/27 02:04:33;;;;;;;;;;;;;;;12.17;69.80;101777.16;1061094;27;636;-71
2022/12/27 02:05:24;;;;;;;;;;;;;;;12.17;69.79;101790.50;1060469;27;716;-71
2022/12/27 02:06:14;;;;;;;;;;;;;;;12.16;69.76;101789.66;1057131;28;688;-72
2022/12/27 02:07:05;;;;;;;;;;;;;;;12.15;70.45;101785.25;1054586;28;980;-71
2022/12/27 02:07:55;;;;;;;;;;;;;;;12.16;69.68;101786.97;1056900;28;641;-71
2022/12/27 02:08:47;;;;;;;;;;;;;;;12.18;69.60;101778.88;1057039;28;1277;-72
2022/12/27 02:09:38;;;;;;;;;;;;;;;12.15;70.00;101787.06;1055963;28;689;-72
2022/12/27 02:10:28;;;;;;;;;;;;;;;12.18;69.61;101786.03;1055514;28;1003;-72
2022/12/27 02:11:49;;;;;;;;;;;;;;;12.15;69.89;101774.56;1055186;28;1741;-71
2022/12/27 02:12:29;;;;;;;;;;;;;;;12.15;70.22;101773.69;1052369;28;646;-71
2022/12/27 02:13:19;;;;;;;;;;;;;;;12.15;70.08;101792.41;1051700;28;1695;-71
2022/12/27 02:14:10;;;;;;;;;;;;;;;12.15;69.97;101779.91;1056032;28;1341;-72
2022/12/27 02:15:01;;;;;;;;;;;;;;;12.16;70.44;101778.09;1056188;28;764;-71
2022/12/27 02:15:52;;;;;;;;;;;;;;;12.14;69.64;101775.50;1056493;28;1177;-72
2022/12/27 02:16:42;;;;;;;;;;;;;;;12.13;70.65;101787.13;1056930;28;725;-71
2022/12/27 02:17:33;;;;;;;;;;;;;;;12.14;70.16;101778.19;1052260;28;1910;-71
2022/12/27 02:18:23;;;;;;;;;;;;;;;12.14;70.14;101775.50;1053962;28;1015;-71
2022/12/27 02:19:14;;;;;;;;;;;;;;;12.13;70.68;101779.13;1055896;28;657;-72
2022/12/27 02:20:04;;;;;;;;;;;;;;;12.12;70.60;101785.41;1055862;28;650;-72
2022/12/27 02:20:55;;;;;;;;;;;;;;;12.12;70.70;101788.09;1058241;28;639;-70
2022/12/27 02:21:45;;;;;;;;;;;;;;;12.13;69.73;101786.28;1058011;28;719;-71
2022/12/27 02:24:01;;;;;;;;;;;;;;;12.12;69.89;101782.75;1053133;28;701;-71
2022/12/27 02:24:01;;;;;;;;;;;;;;;12.13;70.42;101789.81;1057348;28;629;-70
2022/12/27 02:24:52;;;;;;;;;;;;;;;12.14;70.49;101788.88;1055128;28;783;-70
2022/12/27 02:25:42;;;;;;;;;;;;;;;12.13;70.54;101784.47;1052428;28;646;-70
2022/12/27 02:26:32;;;;;;;;;;;;;;;12.13;70.25;101795.16;1052736;28;717;-70
2022/12/27 02:27:23;;;;;;;;;;;;;;;12.13;70.11;101792.50;1052855;28;704;-71
2022/12/27 02:28:13;;;;;;;;;;;;;;;12.14;70.59;101794.22;1053322;28;656;-71
2022/12/27 02:29:04;;;;;;;;;;;;;;;12.13;70.17;101794.28;1054181;28;1158;-71
2022/12/27 02:29:54;;;;;;;;;;;;;;;12.15;70.36;101801.28;1056628;28;1611;-71
2022/12/27 02:30:45;;;;;;;;;;;;;;;12.14;69.83;101799.56;1052872;28;689;-70
2022/12/27 02:31:35;;;;;;;;;;;;;;;12.13;70.26;101802.31;1053601;28;677;-71
2022/12/27 02:32:26;;;;;;;;;;;;;;;12.12;70.40;101798.78;1052770;28;679;-71
2022/12/27 02:33:16;;;;;;;;;;;;;;;12.14;69.82;101804.91;1054639;28;1130;-71
2022/12/27 02:34:06;;;;;;;;;;;;;;;12.12;69.77;101806.78;1055693;28;622;-71
2022/12/27 02:34:57;;;;;;;;;;;;;;;12.12;69.86;101806.78;1055937;28;639;-71
2022/12/27 02:35:47;;;;;;;;;;;;;;;12.11;70.64;101805.06;1055497;28;1218;-71
2022/12/27 02:36:38;;;;;;;;;;;;;;;12.13;70.59;101821.00;1056431;28;634;-71
2022/12/27 02:37:28;;;;;;;;;;;;;;;12.11;70.56;101814.88;1056456;28;1889;-71
2022/12/27 02:38:19;;;;;;;;;;;;;;;12.12;70.43;101809.47;1056389;28;669;-71
2022/12/27 02:39:09;;;;;;;;;;;;;;;12.13;70.67;101821.00;1054734;28;716;-71
2022/12/27 02:53:02;;;;;;;;;;;;;;;12.13;69.73;101816.53;1052407;28;1791;-70
2022/12/27 02:53:51;;;;;;;;;;;;;;;12.09;70.80;101823.00;1054497;28;637;-70
2022/12/27 02:54:41;;;;;;;;;;;;;;;12.09;70.03;101820.31;1052473;28;1170;-69
2022/12/27 02:55:31;;;;;;;;;;;;;;;12.10;70.71;101821.19;1053310;28;645;-70
2022/12/27 02:57:31;;;;;;;;;;;;;;;12.09;70.70;101820.31;1052196;28;1964;-70
2022/12/27 02:58:21;;;;;;;;;;;;;;;12.11;70.80;101823.78;1056770;28;778;-71
2022/12/27 02:59:12;;;;;;;;;;;;;;;12.12;69.89;101821.97;1056252;28;688;-71
2022/12/27 03:03:30;;;;;;;;;;;;;;;12.11;70.21;101821.09;1052806;28;676;-71
2022/12/27 03:04:20;;;;;;;;;;;;;;;12.11;70.25;101823.78;1052750;28;622;-70
2022/12/27 03:05:11;;;;;;;;;;;;;;;12.11;70.72;101814.88;1052128;28;688;-70
2022/12/27 03:07:11;;;;;;;;;;;;;;;12.11;70.72;101823.78;1057812;28;641;-71
2022/12/27 03:08:01;;;;;;;;;;;;;;;12.09;70.11;101820.31;1053541;28;1687;-71
2022/12/27 03:08:51;;;;;;;;;;;;;;;12.08;69.94;101821.25;1051993;28;630;-71
2022/12/27 03:15:54;;;;;;;;;;;;;;;12.09;70.27;101822.13;1048633;28;638;-70
2022/12/27 03:16:54;;;;;;;;;;;;;;;12.12;70.64;101830.84;1052815;28;653;-70
2022/12/27 03:17:44;;;;;;;;;;;;;;;12.08;70.13;101826.59;1055063;28;1906;-71
2022/12/27 03:18:35;;;;;;;;;;;;;;;12.10;70.09;101823.84;1052684;28;630;-71
2022/12/27 03:25:28;;;;;;;;;;;;;;;12.11;70.67;101826.44;1044590;28;745;-70
2022/12/27 03:26:18;;;;;;;;;;;;;;;12.09;70.52;101828.34;1048668;28;941;-70
2022/12/27 03:27:09;;;;;;;;;;;;;;;12.06;70.66;101819.63;1048567;28;685;-71
2022/12/27 03:33:13;;;;;;;;;;;;;;;12.04;71.10;101819.69;1040290;28;733;-71
2022/12/27 03:34:30;;;;;;;;;;;;;;;12.03;70.23;101833.13;1040264;28;665;-70
2022/12/27 03:35:14;;;;;;;;;;;;;;;12.03;70.52;101835.81;1040634;28;989;-70
2022/12/27 03:38:23;;;;;;;;;;;;;;;12.08;70.76;101834.63;1042971;28;753;-70
2022/12/27 03:39:13;;;;;;;;;;;;;;;12.07;70.57;101838.25;1040602;28;1467;-70
2022/12/27 03:40:03;;;;;;;;;;;;;;;12.08;70.00;101839.97;1038655;28;665;-70
2022/12/27 03:43:12;;;;;;;;;;;;;;;12.10;70.31;101846.09;1041993;28;1124;-70
2022/12/27 03:44:22;;;;;;;;;;;;;;;12.08;70.06;101845.31;1040732;28;957;-70
2022/12/27 03:45:13;;;;;;;;;;;;;;;12.07;69.93;101846.25;1040890;28;618;-70
2022/12/27 03:47:12;;;;;;;;;;;;;;;12.05;70.60;101842.81;1040303;28;658;-72
2022/12/27 03:48:03;;;;;;;;;;;;;;;12.06;70.54;101846.34;1041678;28;945;-71
2022/12/27 03:48:53;;;;;;;;;;;;;;;12.04;70.06;101851.75;1044436;28;1009;-72
2022/12/27 03:49:43;;;;;;;;;;;;;;;12.06;70.52;101852.53;1039495;28;642;-71
2022/12/27 03:50:34;;;;;;;;;;;;;;;12.05;70.01;101853.50;1036649;28;1081;-71
2022/12/27 03:51:24;;;;;;;;;;;;;;;12.08;70.71;101855.13;1039688;28;1037;-71
2022/12/27 03:52:15;;;;;;;;;;;;;;;12.07;70.94;101851.59;1041500;28;621;-71
2022/12/27 03:53:06;;;;;;;;;;;;;;;12.07;70.06;101850.72;1042431;28;1099;-71
2022/12/27 03:53:56;;;;;;;;;;;;;;;12.06;70.27;101857.03;1044715;28;1190;-71
2022/12/27 03:54:46;;;;;;;;;;;;;;;12.07;70.27;101850.72;1036930;28;729;-71
2022/12/27 03:55:37;;;;;;;;;;;;;;;12.05;70.71;101849.94;1037292;28;1155;-72
2022/12/27 03:56:27;;;;;;;;;;;;;;;12.02;70.55;101859.00;1037306;28;669;-72
2022/12/27 03:57:18;;;;;;;;;;;;;;;12.02;70.37;101850.13;1036751;28;595;-72
2022/12/27 03:58:08;;;;;;;;;;;;;;;12.03;70.26;101852.72;1039573;28;1561;-71
2022/12/27 03:58:58;;;;;;;;;;;;;;;12.02;70.84;101853.66;1043570;28;1246;-72
2022/12/27 03:59:49;;;;;;;;;;;;;;;12.04;70.34;101858.91;1041916;28;1168;-71
2022/12/27 04:00:39;;;;;;;;;;;;;;;12.04;70.25;101862.44;1043637;28;1285;-71
2022/12/27 04:01:30;;;;;;;;;;;;;;;12.04;71.06;101850.91;1040838;28;674;-72
2022/12/27 04:02:20;;;;;;;;;;;;;;;12.03;70.49;101859.84;1042155;28;1199;-71
2022/12/27 04:03:11;;;;;;;;;;;;;;;12.01;70.92;101859.94;1046222;28;1127;-72
2022/12/27 04:04:01;;;;;;;;;;;;;;;12.04;70.75;101864.25;1053678;28;830;-72
2022/12/27 04:04:51;;;;;;;;;;;;;;;12.03;70.10;101866.06;1053017;28;630;-72
2022/12/27 04:05:42;;;;;;;;;;;;;;;12.02;70.42;101864.34;1055647;28;1019;-72
2022/12/27 04:06:32;;;;;;;;;;;;;;;12.02;70.15;101861.66;1056773;28;1492;-72
2022/12/27 04:07:23;;;;;;;;;;;;;;;12.03;70.19;101859.84;1055065;28;701;-71
2022/12/27 04:34:45;;;;;;;;;;;;;;;11.99;70.53;101858.31;1056165;28;725;-72
2022/12/27 04:35:36;;;;;;;;;;;;;;;11.97;70.46;101861.06;1051694;28;626;-72
2022/12/27 04:36:26;;;;;;;;;;;;;;;11.98;70.71;101862.81;1053562;28;1016;-72
2022/12/27 04:37:16;;;;;;;;;;;;;;;11.98;71.25;101862.81;1055195;28;622;-72
2022/12/27 04:38:07;;;;;;;;;;;;;;;11.98;70.71;101862.81;1056216;28;1146;-71
2022/12/27 04:38:57;;;;;;;;;;;;;;;11.97;70.92;101858.41;1055542;28;1227;-71
2022/12/27 04:54:55;;;;;;;;;;;;;;;11.98;70.73;101867.28;1044761;28;736;-72
2022/12/27 04:55:46;;;;;;;;;;;;;;;11.99;70.79;101867.19;1044195;28;1588;-72
2022/12/27 04:56:36;;;;;;;;;;;;;;;11.98;70.71;101862.81;1042193;28;1068;-72
2022/12/27 04:57:27;;;;;;;;;;;;;;;11.99;70.94;101864.53;1040697;28;655;-71
2022/12/27 04:58:17;;;;;;;;;;;;;;;11.99;70.97;101867.19;1043691;28;709;-72
2022/12/27 05:02:35;;;;;;;;;;;;;;;11.99;70.71;101871.69;1039366;28;841;-72
2022/12/27 05:03:25;;;;;;;;;;;;;;;11.97;71.29;101874.44;1042489;28;1093;-72
2022/12/27 05:04:16;;;;;;;;;;;;;;;11.97;70.76;101871.75;1043598;28;1167;-72
2022/12/27 05:05:06;;;;;;;;;;;;;;;11.96;70.92;101880.72;1043109;28;751;-72
2022/12/27 05:05:56;;;;;;;;;;;;;;;11.97;70.34;101878.91;1039376;28;1758;-72
2022/12/27 05:06:47;;;;;;;;;;;;;;;11.97;70.59;101876.25;1039900;28;1065;-71
2022/12/27 05:14:31;;;;;;;;;;;;;;;11.94;71.36;101893.28;1041527;28;1186;-72
2022/12/27 05:15:22;;;;;;;;;;;;;;;11.93;70.37;101886.22;1043951;28;1210;-72
2022/12/27 05:16:12;;;;;;;;;;;;;;;11.94;70.39;101895.97;1041297;28;1784;-72
2022/12/27 05:17:02;;;;;;;;;;;;;;;11.92;70.39;101889.84;1043044;28;1242;-72
2022/12/27 05:17:53;;;;;;;;;;;;;;;11.93;71.18;101890.69;1042004;28;1968;-72
2022/12/27 05:18:43;;;;;;;;;;;;;;;11.96;70.58;101901.22;1052489;28;751;-72
2022/12/27 05:19:34;;;;;;;;;;;;;;;11.96;71.10;101896.75;1060342;28;955;-72
2022/12/27 05:20:24;;;;;;;;;;;;;;;11.94;71.24;101889.75;1060090;28;775;-72
2022/12/27 05:21:15;;;;;;;;;;;;;;;11.96;71.18;101891.41;1057958;28;731;-72
2022/12/27 05:25:37;;;;;;;;;;;;;;;11.96;70.95;101893.22;1055850;28;1082;-72
2022/12/27 05:26:27;;;;;;;;;;;;;;;11.96;70.29;101896.75;1049901;28;1088;-72
2022/12/27 05:27:18;;;;;;;;;;;;;;;11.97;70.27;101893.13;1051232;28;789;-72
2022/12/27 05:28:08;;;;;;;;;;;;;;;11.95;71.21;101889.69;1060317;28;700;-72
2022/12/27 05:28:58;;;;;;;;;;;;;;;11.96;70.80;101896.75;1058408;28;664;-72
2022/12/27 05:29:49;;;;;;;;;;;;;;;11.95;70.37;101889.69;1056633;28;657;-72
2022/12/27 05:30:39;;;;;;;;;;;;;;;11.94;70.51;101893.28;1051791;28;677;-72
2022/12/27 05:31:30;;;;;;;;;;;;;;;11.95;70.28;101895.03;1051655;28;685;-72
2022/12/27 05:32:20;;;;;;;;;;;;;;;11.93;70.75;101894.22;1056186;28;966;-72
2022/12/27 05:33:11;;;;;;;;;;;;;;;11.93;70.28;101891.56;1057725;28;1182;-72
2022/12/27 05:34:01;;;;;;;;;;;;;;;11.90;70.58;101889.06;1056153;28;812;-72
2022/12/27 05:34:52;;;;;;;;;;;;;;;11.90;71.10;101894.41;1052334;28;641;-72
2022/12/27 05:35:42;;;;;;;;;;;;;;;11.92;70.38;101897.84;1051810;28;725;-72
2022/12/27 05:36:33;;;;;;;;;;;;;;;11.90;70.44;101891.72;1053163;28;1174;-72
2022/12/27 05:37:23;;;;;;;;;;;;;;;11.92;70.83;101892.50;1048976;28;665;-72
2022/12/27 05:38:13;;;;;;;;;;;;;;;11.90;70.64;101894.41;1048486;28;664;-71
2022/12/27 05:39:04;;;;;;;;;;;;;;;11.91;70.64;101895.25;1055763;28;1094;-72
2022/12/27 05:39:54;;;;;;;;;;;;;;;11.92;70.48;101895.19;1055463;28;630;-72
2022/12/27 05:40:45;;;;;;;;;;;;;;;11.93;70.91;101896.91;1054883;28;1235;-72
2022/12/27 05:41:35;;;;;;;;;;;;;;;11.92;70.76;101905.00;1055470;28;684;-72
2022/12/27 05:42:26;;;;;;;;;;;;;;;11.89;71.42;101900.69;1056717;28;1268;-71
2022/12/27 05:43:16;;;;;;;;;;;;;;;11.89;71.43;101903.34;1057679;28;932;-72
2022/12/27 05:44:06;;;;;;;;;;;;;;;11.89;70.32;101902.50;1056277;28;726;-72
2022/12/27 05:44:57;;;;;;;;;;;;;;;11.90;70.49;101907.75;1056440;28;1008;-72
2022/12/27 05:45:47;;;;;;;;;;;;;;;11.92;71.35;101905.00;1056841;28;676;-70
2022/12/27 05:46:38;;;;;;;;;;;;;;;11.94;70.41;101916.47;1056941;28;1170;-72
2022/12/27 05:47:28;;;;;;;;;;;;;;;11.91;71.37;101914.81;1056763;28;669;-72
2022/12/27 05:48:18;;;;;;;;;;;;;;;11.90;70.48;101913.09;1055227;28;1008;-72
2022/12/27 05:49:09;;;;;;;;;;;;;;;11.91;71.34;101913.97;1057796;28;716;-72
2022/12/27 05:49:59;;;;;;;;;;;;;;;11.90;70.93;101907.75;1056131;28;1232;-72
2022/12/27 05:50:50;;;;;;;;;;;;;;;11.89;71.02;101908.69;1055939;28;1138;-72
2022/12/27 05:51:40;;;;;;;;;;;;;;;11.89;70.50;101910.50;1056224;28;796;-72
2022/12/27 05:52:31;;;;;;;;;;;;;;;11.89;71.27;101915.84;1058390;28;676;-72
2022/12/27 05:53:21;;;;;;;;;;;;;;;11.89;70.91;101914.03;1052936;28;802;-72
2022/12/27 05:54:11;;;;;;;;;;;;;;;11.90;70.51;101923.78;1055449;28;1127;-72
2022/12/27 05:55:02;;;;;;;;;;;;;;;11.87;71.32;101913.25;1054221;28;668;-71
2022/12/27 05:55:52;;;;;;;;;;;;;;;11.88;70.53;101917.66;1054084;28;1167;-72
2022/12/27 05:56:43;;;;;;;;;;;;;;;11.88;70.85;101920.31;1053536;28;1062;-72
2022/12/27 05:57:33;;;;;;;;;;;;;;;11.88;71.04;101931.00;1056163;28;1318;-72
2022/12/27 05:58:24;;;;;;;;;;;;;;;11.89;71.02;101927.38;1053832;28;1134;-73
2022/12/27 05:59:14;;;;;;;;;;;;;;;11.88;70.74;101920.31;1056053;28;694;-73
2022/12/27 06:00:05;;;;;;;;;;;;;;;11.89;71.48;101923.84;1055394;27;1324;-73
2022/12/27 06:00:55;;;;;;;;;;;;;;;11.88;70.78;101924.78;1053074;28;1197;-73
2022/12/27 06:01:45;;;;;;;;;;;;;;;11.88;70.60;101924.78;1056756;28;696;-73
2022/12/27 06:02:38;;;;;;;;;;;;;;;11.85;71.41;101920.47;1060527;27;653;-73
2022/12/27 06:03:28;;;;;;;;;;;;;;;11.84;71.50;101918.75;1061145;27;578;-73
2022/12/27 06:04:18;;;;;;;;;;;;;;;11.87;71.45;101929.28;1055254;28;1433;-73
2022/12/27 06:05:09;;;;;;;;;;;;;;;11.86;71.32;101924.00;1054598;28;1047;-72
2022/12/27 06:06:00;;;;;;;;;;;;;;;11.88;71.39;101923.00;1056117;28;737;-72